Airfield :
LOGIN :

Register | Disclaimer

   EN    FR    IT 

 










Legend :    VFR   Marginal VFR   IFR   Intensive IFR   Very Intensive IFR
Visi :
Ceiling :
>= 8 km
>= 3000ft
5 to 8 km
1000 to 3000 ft
1500m to 5 km
500 to 1000 ft
800 to 1500m
200 to 500 ft
< 800m
< 200 ft
Symbols :   Thunderstorms  Fog  Heavy snow  Heavy precipitations  Wind > 20 kt
SIGMETs :     Misc.  Thunderstorms  Icing  Turbulence  Mountain Waves  Volcanic Ashes







- Airport Elevation : 408 ft
- IATA code : SOB


LHSM - Sarmellek Balaton

CURRENT METAR :
  • 141415Z 08003KT 9999 BKN030 06/03 Q1006 NOSIG

EXPIRED METARs :
  • 141345Z 04003KT 9999 BKN030 06/04 Q1006 NOSIG
  • 141315Z 16007KT CAVOK 06/03 Q1006 NOSIG
  • 141245Z 14004KT CAVOK 07/03 Q1006 NOSIG
  • 141215Z 17005KT CAVOK 07/03 Q1006 NOSIG
  • 141145Z 16006KT 9999 FEW020 BKN083 06/03 Q1005 NOSIG

TAF TAF LHSM
Valid from the 14 at 12:00 until the 14 at 21:00 UTC


141115Z 1412/1421 17010KT 9999 SCT020 BKN080
PROB40
TEMPO 1412/1421 5000 RA SHRA BKN020 SCT025TCU
BECMG 1415/1418 VRB03KT
PROB30
TEMPO 1418/1421 VRB12G25KT 3000 TSRA BKN015 SCT020CB
No reported NOTAMs for that airfield.



MET'MAP, your aeronautical weather chart ! - Copyright ORBIFLY December 2007 - Disclaimer

ORBIFLY MET'MAP TEAM :

Programming & Development : Alexandra Zaïnal
Concept & Development : Baudouin d'Aumeries
Co-Development & Prog : Marc-Olivier Méhu
Technical & hardware support : Manuel Goepfert

Contact : metmap@orbifly.com




SOURCES & CREDITS :

   NOAA